sensor_id;sensor_type;location;lat;lon;timestamp;P1;durP1;ratioP1;P2;durP2;ratioP2
81908;SDS011;71372;43.514;1.512;2023-09-19T00:00:45;4.72;;;1.40;;
81908;SDS011;71372;43.514;1.512;2023-09-19T00:03:12;7.72;;;2.08;;
81908;SDS011;71372;43.514;1.512;2023-09-19T00:05:39;4.55;;;1.75;;
81908;SDS011;71372;43.514;1.512;2023-09-19T00:08:05;8.63;;;1.92;;
81908;SDS011;71372;43.514;1.512;2023-09-19T00:10:32;8.10;;;1.70;;
81908;SDS011;71372;43.514;1.512;2023-09-19T00:13:01;5.05;;;1.58;;
81908;SDS011;71372;43.514;1.512;2023-09-19T00:15:31;4.15;;;1.55;;
81908;SDS011;71372;43.514;1.512;2023-09-19T00:18:03;5.90;;;1.70;;
81908;SDS011;71372;43.514;1.512;2023-09-19T00:20:32;9.07;;;2.00;;
81908;SDS011;71372;43.514;1.512;2023-09-19T00:23:00;10.57;;;1.65;;
81908;SDS011;71372;43.514;1.512;2023-09-19T00:28:01;7.55;;;1.70;;
81908;SDS011;71372;43.514;1.512;2023-09-19T00:30:27;3.97;;;1.30;;
81908;SDS011;71372;43.514;1.512;2023-09-19T00:32:53;4.10;;;1.58;;
81908;SDS011;71372;43.514;1.512;2023-09-19T00:35:23;3.20;;;1.50;;
81908;SDS011;71372;43.514;1.512;2023-09-19T00:37:53;4.72;;;1.90;;
81908;SDS011;71372;43.514;1.512;2023-09-19T00:40:19;5.10;;;1.60;;
81908;SDS011;71372;43.514;1.512;2023-09-19T00:45:13;7.15;;;1.58;;
81908;SDS011;71372;43.514;1.512;2023-09-19T00:47:45;4.00;;;1.55;;
81908;SDS011;71372;43.514;1.512;2023-09-19T00:50:17;5.85;;;1.83;;
81908;SDS011;71372;43.514;1.512;2023-09-19T00:52:48;5.18;;;1.80;;
81908;SDS011;71372;43.514;1.512;2023-09-19T00:55:16;6.43;;;1.80;;
81908;SDS011;71372;43.514;1.512;2023-09-19T00:57:45;9.60;;;2.03;;
81908;SDS011;71372;43.514;1.512;2023-09-19T01:00:11;5.53;;;1.73;;
81908;SDS011;71372;43.514;1.512;2023-09-19T01:02:41;7.63;;;1.77;;
81908;SDS011;71372;43.514;1.512;2023-09-19T01:05:11;7.47;;;1.60;;
81908;SDS011;71372;43.514;1.512;2023-09-19T01:07:38;6.75;;;1.52;;
81908;SDS011;71372;43.514;1.512;2023-09-19T01:10:08;4.90;;;1.48;;
81908;SDS011;71372;43.514;1.512;2023-09-19T01:15:19;5.90;;;1.60;;
81908;SDS011;71372;43.514;1.512;2023-09-19T01:26:10;5.40;;;1.40;;
81908;SDS011;71372;43.514;1.512;2023-09-19T01:32:03;7.97;;;1.63;;
81908;SDS011;71372;43.514;1.512;2023-09-19T01:37:23;4.82;;;1.30;;
81908;SDS011;71372;43.514;1.512;2023-09-19T01:39:59;4.00;;;1.40;;
81908;SDS011;71372;43.514;1.512;2023-09-19T01:56:50;6.57;;;1.60;;
81908;SDS011;71372;43.514;1.512;2023-09-19T01:59:17;4.93;;;1.40;;
81908;SDS011;71372;43.514;1.512;2023-09-19T02:01:50;5.00;;;1.42;;
81908;SDS011;71372;43.514;1.512;2023-09-19T02:04:18;3.28;;;1.27;;
81908;SDS011;71372;43.514;1.512;2023-09-19T02:06:44;8.18;;;1.88;;
81908;SDS011;71372;43.514;1.512;2023-09-19T02:09:13;7.30;;;1.70;;
81908;SDS011;71372;43.514;1.512;2023-09-19T02:11:40;4.45;;;1.58;;
81908;SDS011;71372;43.514;1.512;2023-09-19T02:14:07;5.80;;;1.70;;
81908;SDS011;71372;43.514;1.512;2023-09-19T02:16:34;5.38;;;1.60;;
81908;SDS011;71372;43.514;1.512;2023-09-19T02:19:00;6.32;;;1.40;;
81908;SDS011;71372;43.514;1.512;2023-09-19T02:21:30;6.50;;;1.67;;
81908;SDS011;71372;43.514;1.512;2023-09-19T02:23:57;5.43;;;1.30;;
81908;SDS011;71372;43.514;1.512;2023-09-19T02:26:24;5.03;;;1.80;;
81908;SDS011;71372;43.514;1.512;2023-09-19T02:28:50;6.45;;;1.70;;
81908;SDS011;71372;43.514;1.512;2023-09-19T02:31:16;6.13;;;1.63;;
81908;SDS011;71372;43.514;1.512;2023-09-19T02:33:42;7.30;;;1.50;;
81908;SDS011;71372;43.514;1.512;2023-09-19T02:36:09;4.82;;;1.70;;
81908;SDS011;71372;43.514;1.512;2023-09-19T02:38:35;5.70;;;1.50;;
81908;SDS011;71372;43.514;1.512;2023-09-19T02:43:28;6.55;;;1.52;;
81908;SDS011;71372;43.514;1.512;2023-09-19T02:45:54;5.40;;;1.55;;
81908;SDS011;71372;43.514;1.512;2023-09-19T02:48:20;6.00;;;1.60;;
81908;SDS011;71372;43.514;1.512;2023-09-19T02:50:49;5.30;;;1.52;;
81908;SDS011;71372;43.514;1.512;2023-09-19T02:53:15;5.13;;;1.45;;
81908;SDS011;71372;43.514;1.512;2023-09-19T02:55:42;7.15;;;1.48;;
81908;SDS011;71372;43.514;1.512;2023-09-19T02:58:08;6.45;;;1.50;;
81908;SDS011;71372;43.514;1.512;2023-09-19T03:00:36;4.70;;;1.35;;
81908;SDS011;71372;43.514;1.512;2023-09-19T03:03:03;7.22;;;2.08;;
81908;SDS011;71372;43.514;1.512;2023-09-19T03:05:29;4.50;;;1.55;;
81908;SDS011;71372;43.514;1.512;2023-09-19T03:07:58;7.20;;;1.60;;
81908;SDS011;71372;43.514;1.512;2023-09-19T03:10:28;6.55;;;1.52;;
81908;SDS011;71372;43.514;1.512;2023-09-19T03:12:56;5.43;;;1.63;;
81908;SDS011;71372;43.514;1.512;2023-09-19T03:15:22;5.22;;;1.70;;
81908;SDS011;71372;43.514;1.512;2023-09-19T03:17:48;6.50;;;2.20;;
81908;SDS011;71372;43.514;1.512;2023-09-19T03:20:15;8.73;;;1.80;;
81908;SDS011;71372;43.514;1.512;2023-09-19T03:22:45;7.30;;;2.05;;
81908;SDS011;71372;43.514;1.512;2023-09-19T03:25:11;7.53;;;1.50;;
81908;SDS011;71372;43.514;1.512;2023-09-19T03:27:38;9.27;;;1.50;;
81908;SDS011;71372;43.514;1.512;2023-09-19T03:30:05;6.10;;;1.80;;
81908;SDS011;71372;43.514;1.512;2023-09-19T03:32:37;6.63;;;2.08;;
81908;SDS011;71372;43.514;1.512;2023-09-19T03:35:09;4.80;;;1.60;;
81908;SDS011;71372;43.514;1.512;2023-09-19T03:37:40;6.40;;;2.10;;
81908;SDS011;71372;43.514;1.512;2023-09-19T03:42:33;8.30;;;1.58;;
81908;SDS011;71372;43.514;1.512;2023-09-19T03:45:01;5.70;;;1.60;;
81908;SDS011;71372;43.514;1.512;2023-09-19T03:47:29;4.63;;;1.88;;
81908;SDS011;71372;43.514;1.512;2023-09-19T03:49:55;7.30;;;1.88;;
81908;SDS011;71372;43.514;1.512;2023-09-19T03:52:21;5.68;;;1.65;;
81908;SDS011;71372;43.514;1.512;2023-09-19T03:54:47;8.43;;;1.80;;
81908;SDS011;71372;43.514;1.512;2023-09-19T03:57:13;4.70;;;1.50;;
81908;SDS011;71372;43.514;1.512;2023-09-19T03:59:41;7.40;;;1.70;;
81908;SDS011;71372;43.514;1.512;2023-09-19T04:02:08;7.13;;;2.00;;
81908;SDS011;71372;43.514;1.512;2023-09-19T04:04:50;5.95;;;1.73;;
81908;SDS011;71372;43.514;1.512;2023-09-19T04:07:17;7.00;;;2.00;;
81908;SDS011;71372;43.514;1.512;2023-09-19T04:09:45;6.68;;;1.83;;
81908;SDS011;71372;43.514;1.512;2023-09-19T04:12:11;6.78;;;1.85;;
81908;SDS011;71372;43.514;1.512;2023-09-19T04:14:37;6.57;;;1.90;;
81908;SDS011;71372;43.514;1.512;2023-09-19T04:17:04;5.35;;;1.85;;
81908;SDS011;71372;43.514;1.512;2023-09-19T04:19:31;7.70;;;2.22;;
81908;SDS011;71372;43.514;1.512;2023-09-19T04:21:57;4.05;;;1.95;;
81908;SDS011;71372;43.514;1.512;2023-09-19T04:24:23;5.38;;;2.00;;
81908;SDS011;71372;43.514;1.512;2023-09-19T04:26:49;7.03;;;1.70;;
81908;SDS011;71372;43.514;1.512;2023-09-19T04:29:15;7.13;;;1.90;;
81908;SDS011;71372;43.514;1.512;2023-09-19T04:31:41;7.70;;;1.80;;
81908;SDS011;71372;43.514;1.512;2023-09-19T04:34:11;7.00;;;2.30;;
81908;SDS011;71372;43.514;1.512;2023-09-19T04:36:43;7.32;;;1.95;;
81908;SDS011;71372;43.514;1.512;2023-09-19T04:39:09;4.57;;;1.70;;
81908;SDS011;71372;43.514;1.512;2023-09-19T04:41:36;5.28;;;2.03;;
81908;SDS011;71372;43.514;1.512;2023-09-19T04:44:06;4.13;;;1.52;;
81908;SDS011;71372;43.514;1.512;2023-09-19T04:46:33;6.90;;;1.77;;
81908;SDS011;71372;43.514;1.512;2023-09-19T04:49:00;8.88;;;2.55;;
81908;SDS011;71372;43.514;1.512;2023-09-19T04:51:26;7.53;;;1.92;;
81908;SDS011;71372;43.514;1.512;2023-09-19T04:53:54;6.90;;;2.30;;
81908;SDS011;71372;43.514;1.512;2023-09-19T04:56:20;10.25;;;2.00;;
81908;SDS011;71372;43.514;1.512;2023-09-19T04:58:47;7.97;;;1.95;;
81908;SDS011;71372;43.514;1.512;2023-09-19T05:01:13;6.07;;;1.92;;
81908;SDS011;71372;43.514;1.512;2023-09-19T05:03:40;6.55;;;1.80;;
81908;SDS011;71372;43.514;1.512;2023-09-19T05:06:06;4.25;;;1.80;;
81908;SDS011;71372;43.514;1.512;2023-09-19T05:08:32;3.80;;;1.70;;
81908;SDS011;71372;43.514;1.512;2023-09-19T05:11:01;5.57;;;2.00;;
81908;SDS011;71372;43.514;1.512;2023-09-19T05:13:27;5.60;;;1.77;;
81908;SDS011;71372;43.514;1.512;2023-09-19T05:15:53;6.38;;;1.92;;
81908;SDS011;71372;43.514;1.512;2023-09-19T05:18:20;7.00;;;2.10;;
81908;SDS011;71372;43.514;1.512;2023-09-19T05:20:47;8.10;;;2.20;;
81908;SDS011;71372;43.514;1.512;2023-09-19T05:23:15;5.22;;;2.17;;
81908;SDS011;71372;43.514;1.512;2023-09-19T05:25:41;3.85;;;1.70;;
81908;SDS011;71372;43.514;1.512;2023-09-19T05:28:11;6.18;;;2.20;;
81908;SDS011;71372;43.514;1.512;2023-09-19T05:30:40;5.60;;;1.80;;
81908;SDS011;71372;43.514;1.512;2023-09-19T05:33:08;5.82;;;1.95;;
81908;SDS011;71372;43.514;1.512;2023-09-19T05:35:34;6.63;;;2.30;;
81908;SDS011;71372;43.514;1.512;2023-09-19T05:38:05;4.10;;;1.77;;
81908;SDS011;71372;43.514;1.512;2023-09-19T05:40:34;7.25;;;2.42;;
81908;SDS011;71372;43.514;1.512;2023-09-19T05:43:01;5.10;;;1.90;;
81908;SDS011;71372;43.514;1.512;2023-09-19T05:45:28;7.57;;;2.17;;
81908;SDS011;71372;43.514;1.512;2023-09-19T05:47:54;5.35;;;2.05;;
81908;SDS011;71372;43.514;1.512;2023-09-19T05:50:30;7.10;;;2.35;;
81908;SDS011;71372;43.514;1.512;2023-09-19T05:52:58;6.18;;;2.10;;
81908;SDS011;71372;43.514;1.512;2023-09-19T05:55:23;4.28;;;1.80;;
81908;SDS011;71372;43.514;1.512;2023-09-19T05:57:51;8.68;;;2.53;;
81908;SDS011;71372;43.514;1.512;2023-09-19T06:00:18;9.15;;;2.38;;
81908;SDS011;71372;43.514;1.512;2023-09-19T06:02:54;9.10;;;2.47;;
81908;SDS011;71372;43.514;1.512;2023-09-19T06:05:22;8.20;;;2.28;;
81908;SDS011;71372;43.514;1.512;2023-09-19T06:07:49;7.38;;;2.10;;
81908;SDS011;71372;43.514;1.512;2023-09-19T06:10:17;7.15;;;2.30;;
81908;SDS011;71372;43.514;1.512;2023-09-19T06:12:44;5.45;;;2.10;;
81908;SDS011;71372;43.514;1.512;2023-09-19T06:15:10;7.15;;;2.30;;
81908;SDS011;71372;43.514;1.512;2023-09-19T06:17:48;8.07;;;1.92;;
81908;SDS011;71372;43.514;1.512;2023-09-19T06:20:15;8.10;;;2.17;;
81908;SDS011;71372;43.514;1.512;2023-09-19T06:22:45;4.47;;;1.83;;
81908;SDS011;71372;43.514;1.512;2023-09-19T06:25:12;7.50;;;2.00;;
81908;SDS011;71372;43.514;1.512;2023-09-19T06:27:45;4.35;;;1.90;;
81908;SDS011;71372;43.514;1.512;2023-09-19T06:30:19;5.55;;;1.90;;
81908;SDS011;71372;43.514;1.512;2023-09-19T06:32:46;5.55;;;2.03;;
81908;SDS011;71372;43.514;1.512;2023-09-19T06:35:12;3.75;;;1.75;;
81908;SDS011;71372;43.514;1.512;2023-09-19T06:37:39;5.88;;;1.75;;
81908;SDS011;71372;43.514;1.512;2023-09-19T06:40:10;6.28;;;1.80;;
81908;SDS011;71372;43.514;1.512;2023-09-19T06:43:13;6.57;;;2.00;;
81908;SDS011;71372;43.514;1.512;2023-09-19T06:45:32;7.82;;;1.80;;
81908;SDS011;71372;43.514;1.512;2023-09-19T06:47:58;5.55;;;2.03;;
81908;SDS011;71372;43.514;1.512;2023-09-19T06:50:25;5.95;;;1.73;;
81908;SDS011;71372;43.514;1.512;2023-09-19T06:52:52;6.72;;;1.60;;
81908;SDS011;71372;43.514;1.512;2023-09-19T06:55:21;5.93;;;1.67;;
81908;SDS011;71372;43.514;1.512;2023-09-19T06:57:50;7.13;;;1.70;;
81908;SDS011;71372;43.514;1.512;2023-09-19T07:00:16;5.50;;;1.58;;
81908;SDS011;71372;43.514;1.512;2023-09-19T07:03:00;4.60;;;1.73;;
81908;SDS011;71372;43.514;1.512;2023-09-19T07:05:29;4.13;;;1.40;;
81908;SDS011;71372;43.514;1.512;2023-09-19T07:10:26;6.78;;;1.33;;
81908;SDS011;71372;43.514;1.512;2023-09-19T07:12:57;7.28;;;1.98;;
81908;SDS011;71372;43.514;1.512;2023-09-19T07:15:28;5.40;;;1.50;;
81908;SDS011;71372;43.514;1.512;2023-09-19T07:17:56;5.20;;;1.60;;
81908;SDS011;71372;43.514;1.512;2023-09-19T07:20:23;4.65;;;1.55;;
81908;SDS011;71372;43.514;1.512;2023-09-19T07:22:52;7.47;;;1.50;;
81908;SDS011;71372;43.514;1.512;2023-09-19T07:25:20;8.65;;;1.73;;
81908;SDS011;71372;43.514;1.512;2023-09-19T07:27:47;6.85;;;1.50;;
81908;SDS011;71372;43.514;1.512;2023-09-19T07:30:13;5.70;;;1.60;;
81908;SDS011;71372;43.514;1.512;2023-09-19T07:32:42;7.63;;;1.20;;
81908;SDS011;71372;43.514;1.512;2023-09-19T07:35:08;5.28;;;1.52;;
81908;SDS011;71372;43.514;1.512;2023-09-19T07:37:34;5.53;;;1.35;;
81908;SDS011;71372;43.514;1.512;2023-09-19T07:42:37;9.10;;;1.13;;
81908;SDS011;71372;43.514;1.512;2023-09-19T07:45:06;3.08;;;1.08;;
81908;SDS011;71372;43.514;1.512;2023-09-19T07:47:33;5.85;;;1.40;;
81908;SDS011;71372;43.514;1.512;2023-09-19T07:50:01;6.80;;;1.20;;
81908;SDS011;71372;43.514;1.512;2023-09-19T07:52:28;10.32;;;1.33;;
81908;SDS011;71372;43.514;1.512;2023-09-19T07:54:55;5.38;;;1.30;;
81908;SDS011;71372;43.514;1.512;2023-09-19T07:57:23;6.43;;;1.17;;
81908;SDS011;71372;43.514;1.512;2023-09-19T07:59:49;5.13;;;1.38;;
81908;SDS011;71372;43.514;1.512;2023-09-19T08:02:14;5.78;;;1.42;;
81908;SDS011;71372;43.514;1.512;2023-09-19T08:04:43;6.40;;;1.40;;
81908;SDS011;71372;43.514;1.512;2023-09-19T08:07:13;9.55;;;1.40;;
81908;SDS011;71372;43.514;1.512;2023-09-19T08:09:39;5.88;;;1.20;;
81908;SDS011;71372;43.514;1.512;2023-09-19T08:12:06;7.20;;;1.17;;
81908;SDS011;71372;43.514;1.512;2023-09-19T08:14:36;8.88;;;1.30;;
81908;SDS011;71372;43.514;1.512;2023-09-19T08:17:07;7.07;;;1.30;;
81908;SDS011;71372;43.514;1.512;2023-09-19T08:19:33;9.15;;;1.70;;
81908;SDS011;71372;43.514;1.512;2023-09-19T08:22:00;7.82;;;1.48;;
81908;SDS011;71372;43.514;1.512;2023-09-19T08:24:29;4.88;;;1.45;;
81908;SDS011;71372;43.514;1.512;2023-09-19T08:27:00;6.10;;;1.20;;
81908;SDS011;71372;43.514;1.512;2023-09-19T08:29:27;6.03;;;1.23;;
81908;SDS011;71372;43.514;1.512;2023-09-19T08:31:55;4.72;;;1.27;;
81908;SDS011;71372;43.514;1.512;2023-09-19T08:34:26;6.22;;;1.05;;
81908;SDS011;71372;43.514;1.512;2023-09-19T08:36:53;4.18;;;1.20;;
81908;SDS011;71372;43.514;1.512;2023-09-19T08:39:23;5.82;;;1.20;;
81908;SDS011;71372;43.514;1.512;2023-09-19T08:41:56;5.00;;;1.48;;
81908;SDS011;71372;43.514;1.512;2023-09-19T08:44:23;7.35;;;1.67;;
81908;SDS011;71372;43.514;1.512;2023-09-19T08:46:50;5.50;;;1.05;;
81908;SDS011;71372;43.514;1.512;2023-09-19T08:52:27;8.38;;;1.38;;
81908;SDS011;71372;43.514;1.512;2023-09-19T08:54:59;6.75;;;1.10;;
81908;SDS011;71372;43.514;1.512;2023-09-19T08:57:33;6.85;;;1.40;;
81908;SDS011;71372;43.514;1.512;2023-09-19T09:00:02;8.05;;;1.52;;
81908;SDS011;71372;43.514;1.512;2023-09-19T09:02:36;7.07;;;1.33;;
81908;SDS011;71372;43.514;1.512;2023-09-19T09:05:09;5.32;;;1.00;;
81908;SDS011;71372;43.514;1.512;2023-09-19T09:07:38;4.75;;;1.20;;
81908;SDS011;71372;43.514;1.512;2023-09-19T09:10:06;6.60;;;1.42;;
81908;SDS011;71372;43.514;1.512;2023-09-19T09:12:33;7.70;;;1.40;;
81908;SDS011;71372;43.514;1.512;2023-09-19T09:15:02;5.47;;;1.00;;
81908;SDS011;71372;43.514;1.512;2023-09-19T09:17:30;4.65;;;1.23;;
81908;SDS011;71372;43.514;1.512;2023-09-19T09:19:56;5.22;;;0.75;;
81908;SDS011;71372;43.514;1.512;2023-09-19T09:22:22;3.17;;;1.00;;
81908;SDS011;71372;43.514;1.512;2023-09-19T09:27:30;7.18;;;1.25;;
81908;SDS011;71372;43.514;1.512;2023-09-19T09:29:58;5.70;;;1.15;;
81908;SDS011;71372;43.514;1.512;2023-09-19T09:32:25;7.30;;;1.45;;
81908;SDS011;71372;43.514;1.512;2023-09-19T09:34:54;4.25;;;1.00;;
81908;SDS011;71372;43.514;1.512;2023-09-19T09:37:22;3.45;;;0.73;;
81908;SDS011;71372;43.514;1.512;2023-09-19T09:42:29;5.68;;;0.95;;
81908;SDS011;71372;43.514;1.512;2023-09-19T09:47:59;7.78;;;1.27;;
81908;SDS011;71372;43.514;1.512;2023-09-19T09:50:30;7.30;;;1.00;;
81908;SDS011;71372;43.514;1.512;2023-09-19T09:53:23;4.20;;;1.00;;
81908;SDS011;71372;43.514;1.512;2023-09-19T09:58:33;6.07;;;1.17;;
81908;SDS011;71372;43.514;1.512;2023-09-19T10:01:02;5.97;;;1.13;;
81908;SDS011;71372;43.514;1.512;2023-09-19T10:03:40;4.68;;;1.02;;
81908;SDS011;71372;43.514;1.512;2023-09-19T10:06:10;6.22;;;1.50;;
81908;SDS011;71372;43.514;1.512;2023-09-19T10:09:02;4.80;;;1.15;;
81908;SDS011;71372;43.514;1.512;2023-09-19T10:11:40;6.50;;;1.38;;
81908;SDS011;71372;43.514;1.512;2023-09-19T10:14:11;4.05;;;1.10;;
81908;SDS011;71372;43.514;1.512;2023-09-19T10:16:45;1.95;;;0.70;;
81908;SDS011;71372;43.514;1.512;2023-09-19T10:19:48;6.75;;;1.02;;
81908;SDS011;71372;43.514;1.512;2023-09-19T10:22:05;4.35;;;0.98;;
81908;SDS011;71372;43.514;1.512;2023-09-19T10:24:34;7.05;;;1.20;;
81908;SDS011;71372;43.514;1.512;2023-09-19T10:27:02;3.63;;;0.90;;
81908;SDS011;71372;43.514;1.512;2023-09-19T10:29:30;2.13;;;0.80;;
81908;SDS011;71372;43.514;1.512;2023-09-19T10:32:01;5.93;;;0.73;;
81908;SDS011;71372;43.514;1.512;2023-09-19T10:34:34;4.45;;;1.08;;
81908;SDS011;71372;43.514;1.512;2023-09-19T10:37:02;3.03;;;0.93;;
81908;SDS011;71372;43.514;1.512;2023-09-19T10:39:31;8.05;;;1.05;;
81908;SDS011;71372;43.514;1.512;2023-09-19T10:41:58;5.18;;;1.20;;
81908;SDS011;71372;43.514;1.512;2023-09-19T10:44:32;4.85;;;0.90;;
81908;SDS011;71372;43.514;1.512;2023-09-19T10:46:58;3.15;;;0.82;;
81908;SDS011;71372;43.514;1.512;2023-09-19T10:49:24;4.57;;;0.93;;
81908;SDS011;71372;43.514;1.512;2023-09-19T10:51:54;3.33;;;0.70;;
81908;SDS011;71372;43.514;1.512;2023-09-19T10:54:26;5.38;;;0.95;;
81908;SDS011;71372;43.514;1.512;2023-09-19T10:56:57;2.22;;;0.57;;
81908;SDS011;71372;43.514;1.512;2023-09-19T10:59:30;5.20;;;0.65;;
81908;SDS011;71372;43.514;1.512;2023-09-19T11:02:00;2.15;;;0.60;;
81908;SDS011;71372;43.514;1.512;2023-09-19T11:04:43;3.22;;;0.80;;
81908;SDS011;71372;43.514;1.512;2023-09-19T11:07:11;4.00;;;1.05;;
81908;SDS011;71372;43.514;1.512;2023-09-19T11:09:49;3.17;;;0.70;;
81908;SDS011;71372;43.514;1.512;2023-09-19T11:12:47;2.38;;;0.68;;
81908;SDS011;71372;43.514;1.512;2023-09-19T11:16:18;2.47;;;0.80;;
81908;SDS011;71372;43.514;1.512;2023-09-19T11:26:48;2.40;;;0.70;;
81908;SDS011;71372;43.514;1.512;2023-09-19T11:29:24;7.30;;;1.13;;
81908;SDS011;71372;43.514;1.512;2023-09-19T11:31:55;4.53;;;0.80;;
81908;SDS011;71372;43.514;1.512;2023-09-19T11:39:37;1.88;;;0.80;;
81908;SDS011;71372;43.514;1.512;2023-09-19T11:48:23;3.42;;;0.60;;
81908;SDS011;71372;43.514;1.512;2023-09-19T11:50:53;3.92;;;0.80;;
81908;SDS011;71372;43.514;1.512;2023-09-19T11:53:19;3.28;;;0.65;;
81908;SDS011;71372;43.514;1.512;2023-09-19T11:55:46;3.03;;;0.82;;
81908;SDS011;71372;43.514;1.512;2023-09-19T11:58:16;2.40;;;0.52;;
81908;SDS011;71372;43.514;1.512;2023-09-19T12:00:44;3.35;;;0.50;;
81908;SDS011;71372;43.514;1.512;2023-09-19T12:03:11;2.45;;;0.80;;
81908;SDS011;71372;43.514;1.512;2023-09-19T12:05:40;3.88;;;0.80;;
81908;SDS011;71372;43.514;1.512;2023-09-19T12:08:07;2.70;;;0.68;;
81908;SDS011;71372;43.514;1.512;2023-09-19T12:10:47;4.75;;;0.90;;
81908;SDS011;71372;43.514;1.512;2023-09-19T12:13:17;2.05;;;0.63;;
81908;SDS011;71372;43.514;1.512;2023-09-19T12:15:46;3.13;;;0.60;;
81908;SDS011;71372;43.514;1.512;2023-09-19T12:18:28;2.83;;;0.80;;
81908;SDS011;71372;43.514;1.512;2023-09-19T12:20:55;4.78;;;0.70;;
81908;SDS011;71372;43.514;1.512;2023-09-19T12:23:21;1.98;;;0.50;;
81908;SDS011;71372;43.514;1.512;2023-09-19T12:25:47;1.65;;;0.60;;
81908;SDS011;71372;43.514;1.512;2023-09-19T12:28:18;3.20;;;0.52;;
81908;SDS011;71372;43.514;1.512;2023-09-19T12:30:44;2.80;;;0.80;;
81908;SDS011;71372;43.514;1.512;2023-09-19T12:33:18;2.20;;;0.60;;
81908;SDS011;71372;43.514;1.512;2023-09-19T12:35:51;2.28;;;0.80;;
81908;SDS011;71372;43.514;1.512;2023-09-19T12:38:23;3.47;;;0.63;;
81908;SDS011;71372;43.514;1.512;2023-09-19T12:41:01;3.22;;;0.70;;
81908;SDS011;71372;43.514;1.512;2023-09-19T12:43:30;2.58;;;0.68;;
81908;SDS011;71372;43.514;1.512;2023-09-19T12:46:01;4.05;;;0.82;;
81908;SDS011;71372;43.514;1.512;2023-09-19T12:48:28;2.25;;;0.57;;
81908;SDS011;71372;43.514;1.512;2023-09-19T12:51:04;1.50;;;0.52;;
81908;SDS011;71372;43.514;1.512;2023-09-19T12:53:38;2.90;;;0.77;;
81908;SDS011;71372;43.514;1.512;2023-09-19T12:56:08;4.22;;;0.60;;
81908;SDS011;71372;43.514;1.512;2023-09-19T12:58:48;2.22;;;0.45;;
81908;SDS011;71372;43.514;1.512;2023-09-19T13:01:29;1.38;;;0.47;;
81908;SDS011;71372;43.514;1.512;2023-09-19T13:06:46;3.58;;;0.60;;
81908;SDS011;71372;43.514;1.512;2023-09-19T13:09:15;1.90;;;0.80;;
81908;SDS011;71372;43.514;1.512;2023-09-19T13:11:42;2.72;;;0.60;;
81908;SDS011;71372;43.514;1.512;2023-09-19T13:22:03;3.00;;;0.70;;
81908;SDS011;71372;43.514;1.512;2023-09-19T13:24:29;4.78;;;0.55;;
81908;SDS011;71372;43.514;1.512;2023-09-19T13:26:56;3.78;;;0.80;;
81908;SDS011;71372;43.514;1.512;2023-09-19T13:29:22;2.78;;;0.98;;
81908;SDS011;71372;43.514;1.512;2023-09-19T13:31:49;3.58;;;0.60;;
81908;SDS011;71372;43.514;1.512;2023-09-19T13:34:16;4.25;;;0.77;;
81908;SDS011;71372;43.514;1.512;2023-09-19T13:36:43;4.43;;;0.70;;
81908;SDS011;71372;43.514;1.512;2023-09-19T13:39:09;2.10;;;0.60;;
81908;SDS011;71372;43.514;1.512;2023-09-19T13:41:35;2.78;;;0.73;;
81908;SDS011;71372;43.514;1.512;2023-09-19T13:44:04;2.22;;;0.60;;
81908;SDS011;71372;43.514;1.512;2023-09-19T13:46:31;3.67;;;0.80;;
81908;SDS011;71372;43.514;1.512;2023-09-19T13:49:03;1.45;;;0.60;;
81908;SDS011;71372;43.514;1.512;2023-09-19T13:51:30;1.30;;;0.50;;
81908;SDS011;71372;43.514;1.512;2023-09-19T13:53:56;3.53;;;0.90;;
81908;SDS011;71372;43.514;1.512;2023-09-19T13:56:22;2.38;;;0.73;;
81908;SDS011;71372;43.514;1.512;2023-09-19T13:58:49;1.58;;;0.57;;
81908;SDS011;71372;43.514;1.512;2023-09-19T14:01:15;2.85;;;0.75;;
81908;SDS011;71372;43.514;1.512;2023-09-19T14:03:41;3.13;;;0.57;;
81908;SDS011;71372;43.514;1.512;2023-09-19T14:06:12;2.47;;;0.68;;
81908;SDS011;71372;43.514;1.512;2023-09-19T14:08:39;2.10;;;0.50;;
81908;SDS011;71372;43.514;1.512;2023-09-19T14:11:05;2.90;;;0.68;;
81908;SDS011;71372;43.514;1.512;2023-09-19T14:13:34;2.28;;;0.50;;
81908;SDS011;71372;43.514;1.512;2023-09-19T14:16:06;2.20;;;0.47;;
81908;SDS011;71372;43.514;1.512;2023-09-19T14:18:34;3.25;;;0.50;;
81908;SDS011;71372;43.514;1.512;2023-09-19T14:21:04;3.22;;;0.55;;
81908;SDS011;71372;43.514;1.512;2023-09-19T14:23:39;3.05;;;0.60;;
81908;SDS011;71372;43.514;1.512;2023-09-19T14:26:07;3.00;;;0.57;;
81908;SDS011;71372;43.514;1.512;2023-09-19T14:28:33;3.53;;;0.70;;
81908;SDS011;71372;43.514;1.512;2023-09-19T14:31:09;3.63;;;0.60;;
81908;SDS011;71372;43.514;1.512;2023-09-19T14:33:37;1.88;;;0.65;;
81908;SDS011;71372;43.514;1.512;2023-09-19T14:36:04;2.58;;;0.80;;
81908;SDS011;71372;43.514;1.512;2023-09-19T14:38:34;2.08;;;0.70;;
81908;SDS011;71372;43.514;1.512;2023-09-19T14:41:02;2.22;;;0.57;;
81908;SDS011;71372;43.514;1.512;2023-09-19T14:43:29;4.25;;;0.50;;
81908;SDS011;71372;43.514;1.512;2023-09-19T14:45:56;9.38;;;1.02;;
81908;SDS011;71372;43.514;1.512;2023-09-19T14:48:25;3.35;;;0.70;;
81908;SDS011;71372;43.514;1.512;2023-09-19T14:50:52;3.10;;;0.50;;
81908;SDS011;71372;43.514;1.512;2023-09-19T14:53:18;2.45;;;0.60;;
81908;SDS011;71372;43.514;1.512;2023-09-19T14:55:44;1.85;;;0.73;;
81908;SDS011;71372;43.514;1.512;2023-09-19T14:58:10;3.00;;;0.85;;
81908;SDS011;71372;43.514;1.512;2023-09-19T15:03:03;1.88;;;0.60;;
81908;SDS011;71372;43.514;1.512;2023-09-19T15:05:29;1.98;;;0.55;;
81908;SDS011;71372;43.514;1.512;2023-09-19T15:07:56;2.63;;;0.60;;
81908;SDS011;71372;43.514;1.512;2023-09-19T15:10:22;2.60;;;0.63;;
81908;SDS011;71372;43.514;1.512;2023-09-19T15:12:48;2.95;;;0.55;;
81908;SDS011;71372;43.514;1.512;2023-09-19T15:15:15;4.25;;;0.60;;
81908;SDS011;71372;43.514;1.512;2023-09-19T15:17:41;2.83;;;0.50;;
81908;SDS011;71372;43.514;1.512;2023-09-19T15:20:07;3.03;;;0.73;;
81908;SDS011;71372;43.514;1.512;2023-09-19T15:22:33;1.77;;;0.60;;
81908;SDS011;71372;43.514;1.512;2023-09-19T15:25:03;1.73;;;0.60;;
81908;SDS011;71372;43.514;1.512;2023-09-19T15:27:30;1.33;;;0.63;;
81908;SDS011;71372;43.514;1.512;2023-09-19T15:30:02;1.58;;;0.60;;
81908;SDS011;71372;43.514;1.512;2023-09-19T15:32:30;2.55;;;0.65;;
81908;SDS011;71372;43.514;1.512;2023-09-19T15:34:57;2.65;;;0.63;;
81908;SDS011;71372;43.514;1.512;2023-09-19T15:37:23;2.30;;;0.50;;
81908;SDS011;71372;43.514;1.512;2023-09-19T15:39:49;3.65;;;0.80;;
81908;SDS011;71372;43.514;1.512;2023-09-19T15:42:15;3.42;;;0.73;;
81908;SDS011;71372;43.514;1.512;2023-09-19T15:44:42;1.88;;;0.60;;
81908;SDS011;71372;43.514;1.512;2023-09-19T15:47:09;1.45;;;0.60;;
81908;SDS011;71372;43.514;1.512;2023-09-19T15:49:35;3.22;;;0.65;;
81908;SDS011;71372;43.514;1.512;2023-09-19T15:52:02;2.80;;;0.52;;
81908;SDS011;71372;43.514;1.512;2023-09-19T15:54:28;2.50;;;0.75;;
81908;SDS011;71372;43.514;1.512;2023-09-19T15:56:55;1.23;;;0.60;;
81908;SDS011;71372;43.514;1.512;2023-09-19T15:59:21;1.20;;;0.60;;
81908;SDS011;71372;43.514;1.512;2023-09-19T16:01:47;2.67;;;0.60;;
81908;SDS011;71372;43.514;1.512;2023-09-19T16:04:14;3.90;;;0.80;;
81908;SDS011;71372;43.514;1.512;2023-09-19T16:06:40;1.98;;;0.68;;
81908;SDS011;71372;43.514;1.512;2023-09-19T16:09:06;2.28;;;0.80;;
81908;SDS011;71372;43.514;1.512;2023-09-19T16:11:33;4.18;;;0.80;;
81908;SDS011;71372;43.514;1.512;2023-09-19T16:14:00;5.15;;;0.90;;
81908;SDS011;71372;43.514;1.512;2023-09-19T16:16:28;4.90;;;0.85;;
81908;SDS011;71372;43.514;1.512;2023-09-19T16:18:57;3.65;;;0.73;;
81908;SDS011;71372;43.514;1.512;2023-09-19T16:21:26;2.17;;;0.68;;
81908;SDS011;71372;43.514;1.512;2023-09-19T16:23:54;3.72;;;0.90;;
81908;SDS011;71372;43.514;1.512;2023-09-19T16:26:21;4.18;;;0.68;;
81908;SDS011;71372;43.514;1.512;2023-09-19T16:28:52;2.35;;;0.60;;
81908;SDS011;71372;43.514;1.512;2023-09-19T16:31:20;1.75;;;0.60;;